Time;durP1;ratioP1;P1;durP2;ratioP2;P2;SDS_P1;SDS_P2;PMS_P1;PMS_P2;Temp;Humidity;BMP_temperature;BMP_pressure;BME280_temperature;BME280_humidity;BME280_pressure;Samples;Min_cycle;Max_cycle;Signal;HPM_P1;HPM_P2
2021/01/13 00:00:29;;;;;;;3.10;0.32;;;28.20;99.90;;;;;;5051822;28;20039;-89
2021/01/13 00:02:56;;;;;;;4.93;0.40;;;28.10;99.90;;;;;;5039373;28;20481;-84
2021/01/13 00:05:23;;;;;;;3.70;0.40;;;27.80;99.90;;;;;;5052000;28;20032;-81
2021/01/13 00:07:52;;;;;;;2.17;0.30;;;27.70;99.90;;;;;;5048054;28;20605;-87
2021/01/13 00:10:20;;;;;;;3.22;0.80;;;27.80;99.90;;;;;;5043326;28;20064;-84
2021/01/13 00:12:48;;;;;;;3.75;0.60;;;27.90;99.90;;;;;;5050396;28;20021;-83
2021/01/13 00:15:15;;;;;;;2.70;0.28;;;27.90;99.90;;;;;;5032947;28;20031;-84
2021/01/13 00:17:50;;;;;;;4.13;0.90;;;27.90;99.90;;;;;;5044115;28;20071;-85
2021/01/13 00:20:17;;;;;;;5.00;0.80;;;28.00;99.90;;;;;;5050910;28;20075;-84
2021/01/13 00:22:48;;;;;;;3.40;0.63;;;28.10;99.90;;;;;;5066687;22;20020;-90
2021/01/13 00:25:16;;;;;;;4.35;0.40;;;28.50;99.90;;;;;;5082241;22;20113;-87
2021/01/13 00:27:45;;;;;;;3.97;0.68;;;28.50;99.90;;;;;;5060840;22;20497;-83
2021/01/13 00:30:13;;;;;;;3.35;0.40;;;28.50;99.70;;;;;;5048161;22;20510;-81
2021/01/13 00:32:40;;;;;;;4.85;0.30;;;28.50;99.90;;;;;;5048451;28;20040;-82
2021/01/13 00:35:08;;;;;;;2.45;0.38;;;28.70;99.00;;;;;;5047903;28;20025;-82
2021/01/13 00:37:37;;;;;;;4.45;0.60;;;28.70;98.70;;;;;;5050242;28;20032;-83
2021/01/13 00:40:10;;;;;;;3.40;0.35;;;28.90;99.90;;;;;;5076958;22;20052;-84
2021/01/13 00:42:48;;;;;;;2.53;0.40;;;28.90;98.80;;;;;;5062079;28;20040;-84
2021/01/13 00:45:19;;;;;;;4.53;0.60;;;29.00;97.90;;;;;;5053728;28;20072;-82
2021/01/13 00:47:53;;;;;;;3.35;0.38;;;29.00;99.00;;;;;;5063912;28;20029;-82
2021/01/13 00:50:22;;;;;;;3.92;0.50;;;29.50;97.80;;;;;;5057339;28;20077;-82
2021/01/13 00:52:50;;;;;;;3.15;0.40;;;29.40;99.10;;;;;;5069607;28;20390;-82
2021/01/13 00:55:17;;;;;;;2.45;0.50;;;29.60;98.40;;;;;;5067001;28;20032;-84
2021/01/13 00:57:52;;;;;;;3.65;0.77;;;30.00;98.20;;;;;;5062191;22;20081;-83
2021/01/13 01:00:19;;;;;;;4.60;0.63;;;29.70;98.30;;;;;;5024186;28;20025;-81
2021/01/13 01:02:47;;;;;;;2.05;0.40;;;29.80;99.00;;;;;;5010173;28;20609;-80
2021/01/13 01:05:14;;;;;;;5.00;0.60;;;29.70;96.80;;;;;;5019813;28;20037;-82
2021/01/13 01:07:43;;;;;;;2.15;0.30;;;29.50;97.60;;;;;;5006689;28;20041;-81
2021/01/13 01:10:16;;;;;;;2.30;0.40;;;29.20;98.90;;;;;;5010909;28;20038;-81
2021/01/13 01:12:44;;;;;;;2.92;0.45;;;29.20;98.30;;;;;;5019904;28;20026;-80
2021/01/13 01:15:12;;;;;;;2.95;0.40;;;29.40;98.30;;;;;;5012080;28;20494;-80
2021/01/13 01:17:39;;;;;;;1.73;0.32;;;29.90;98.80;;;;;;5011763;28;20030;-81
2021/01/13 01:20:07;;;;;;;4.80;0.50;;;30.30;98.90;;;;;;5012372;28;20014;-89
2021/01/13 01:22:34;;;;;;;3.25;0.35;;;30.40;97.00;;;;;;5025118;28;20075;-90
2021/01/13 01:25:01;;;;;;;1.60;0.38;;;30.00;96.60;;;;;;5042492;28;20032;-92
2021/01/13 01:27:29;;;;;;;1.88;0.32;;;30.00;96.50;;;;;;5033440;28;20394;-86
2021/01/13 01:29:56;;;;;;;3.80;0.82;;;30.00;97.20;;;;;;5056612;22;20063;-95
2021/01/13 01:32:28;;;;;;;3.95;0.75;;;29.90;96.60;;;;;;5069699;28;20143;-89
2021/01/13 01:34:56;;;;;;;6.55;0.63;;;30.10;96.60;;;;;;5069565;28;20020;-79
2021/01/13 01:37:23;;;;;;;2.45;0.30;;;30.00;97.20;;;;;;5067435;28;20477;-80
2021/01/13 01:39:50;;;;;;;4.80;0.70;;;29.70;96.40;;;;;;5056678;28;20040;-82
2021/01/13 01:42:17;;;;;;;3.20;0.50;;;30.20;97.20;;;;;;5047720;28;20029;-80
2021/01/13 01:44:45;;;;;;;5.88;0.75;;;30.70;94.80;;;;;;5045635;28;20029;-78
2021/01/13 01:47:13;;;;;;;5.07;0.70;;;30.50;95.90;;;;;;5049123;28;20021;-80
2021/01/13 01:49:44;;;;;;;3.10;0.55;;;30.30;96.30;;;;;;5051673;28;20033;-78
2021/01/13 01:52:17;;;;;;;2.47;0.40;;;30.10;96.90;;;;;;5045545;28;20021;-80
2021/01/13 01:54:55;;;;;;;3.25;0.65;;;30.30;98.00;;;;;;5041476;28;20029;-83
2021/01/13 01:57:26;;;;;;;3.50;0.63;;;30.30;94.90;;;;;;5036592;28;20316;-86
2021/01/13 02:00:03;;;;;;;3.45;0.60;;;30.30;95.60;;;;;;5036523;28;20108;-81
2021/01/13 02:02:40;;;;;;;3.08;0.40;;;30.30;95.40;;;;;;5053699;28;20108;-80
2021/01/13 02:05:12;;;;;;;3.50;0.22;;;30.20;94.50;;;;;;5035473;28;20111;-81
2021/01/13 02:07:39;;;;;;;4.13;0.65;;;30.10;95.10;;;;;;5032352;28;20033;-82
2021/01/13 02:10:07;;;;;;;4.05;0.70;;;30.30;95.90;;;;;;5035948;28;20116;-81
2021/01/13 02:12:36;;;;;;;2.63;0.30;;;30.60;94.50;;;;;;5044320;28;20047;-82
2021/01/13 02:15:07;;;;;;;2.65;0.30;;;30.30;94.80;;;;;;5051487;28;20064;-81
2021/01/13 02:17:39;;;;;;;3.00;0.45;;;30.00;96.70;;;;;;5034871;28;20032;-80
2021/01/13 02:20:12;;;;;;;2.08;0.30;;;30.30;95.20;;;;;;5067904;28;20024;-81
2021/01/13 02:22:58;;;;;;;4.68;0.80;;;30.70;94.90;;;;;;5070118;28;20137;-81
2021/01/13 02:25:53;;;;;;;2.47;0.40;;;30.90;95.10;;;;;;5040964;28;20037;-82
2021/01/13 02:28:23;;;;;;;3.65;0.65;;;31.00;93.90;;;;;;5045875;28;20375;-82
2021/01/13 02:31:23;;;;;;;2.08;0.30;;;30.70;94.90;;;;;;5071146;22;20049;-81
2021/01/13 02:37:04;;;;;;;2.92;0.55;;;30.90;94.30;;;;;;5061926;22;20048;-80
2021/01/13 02:39:36;;;;;;;4.00;0.43;;;30.90;95.30;;;;;;5079072;22;20048;-79
2021/01/13 02:42:04;;;;;;;3.47;0.40;;;31.20;94.30;;;;;;5055993;28;20028;-80
2021/01/13 02:44:32;;;;;;;3.90;0.50;;;30.90;94.60;;;;;;5071182;28;20060;-79
2021/01/13 02:47:03;;;;;;;2.85;0.32;;;31.20;95.30;;;;;;5074047;28;20060;-78
2021/01/13 02:49:37;;;;;;;2.63;0.55;;;31.00;94.00;;;;;;5039613;22;20066;-76
2021/01/13 02:52:25;;;;;;;2.08;0.45;;;30.80;93.00;;;;;;5014090;28;20088;-77
2021/01/13 02:54:56;;;;;;;1.88;0.20;;;30.20;94.00;;;;;;4995136;28;20031;-79
2021/01/13 02:57:32;;;;;;;4.00;0.40;;;30.40;93.90;;;;;;4997445;28;20053;-77
2021/01/13 03:00:03;;;;;;;1.73;0.28;;;30.50;93.90;;;;;;5014604;28;20020;-76
2021/01/13 03:02:40;;;;;;;3.10;0.50;;;30.40;96.90;;;;;;5009939;28;20034;-76
2021/01/13 03:05:08;;;;;;;5.78;0.70;;;30.20;95.60;;;;;;5038357;22;20049;-78
2021/01/13 03:07:37;;;;;;;3.17;0.30;;;30.50;95.30;;;;;;5051538;28;20057;-81
2021/01/13 03:10:17;;;;;;;3.58;0.50;;;30.70;93.70;;;;;;5052294;28;20385;-82
2021/01/13 03:12:49;;;;;;;7.80;0.52;;;30.30;93.70;;;;;;5051110;28;20088;-82
2021/01/13 03:15:19;;;;;;;7.70;0.70;;;30.30;94.30;;;;;;5045729;28;20166;-80
2021/01/13 03:18:14;;;;;;;2.90;0.30;;;30.50;95.80;;;;;;5050778;28;20035;-81
2021/01/13 03:21:11;;;;;;;3.47;0.30;;;30.10;94.70;;;;;;5037369;28;20105;-77
2021/01/13 03:23:44;;;;;;;3.25;0.43;;;29.70;95.50;;;;;;5039447;28;20025;-76
2021/01/13 03:26:17;;;;;;;3.30;0.30;;;29.60;96.80;;;;;;5044617;28;20024;-77
2021/01/13 03:28:46;;;;;;;4.45;0.32;;;30.10;95.90;;;;;;5043120;28;20033;-78
2021/01/13 03:31:21;;;;;;;2.83;0.50;;;30.10;96.50;;;;;;5047270;28;20014;-77
2021/01/13 03:34:27;;;;;;;3.20;0.45;;;29.60;96.00;;;;;;5044148;28;20155;-82
2021/01/13 03:37:10;;;;;;;7.63;0.80;;;29.50;96.10;;;;;;5014494;22;20048;-80
2021/01/13 03:39:39;;;;;;;5.25;0.32;;;29.20;96.70;;;;;;5026023;28;20097;-81
2021/01/13 03:42:09;;;;;;;2.40;0.82;;;29.50;97.40;;;;;;5033371;28;20478;-79
2021/01/13 03:44:40;;;;;;;3.33;0.47;;;29.80;96.40;;;;;;5030589;28;20083;-80
2021/01/13 03:47:16;;;;;;;2.13;0.22;;;29.90;96.40;;;;;;5015641;28;20030;-83
2021/01/13 03:49:52;;;;;;;4.72;0.57;;;29.60;97.00;;;;;;5013920;28;20528;-81
2021/01/13 03:52:25;;;;;;;3.08;0.50;;;29.70;96.20;;;;;;5033218;28;20026;-82
2021/01/13 03:54:54;;;;;;;3.67;0.50;;;29.50;98.30;;;;;;5030917;28;20034;-84
2021/01/13 03:57:45;;;;;;;2.42;0.22;;;29.60;97.20;;;;;;5020979;28;20072;-88
2021/01/13 04:00:13;;;;;;;4.78;0.50;;;29.70;96.40;;;;;;4996073;28;20068;-92
2021/01/13 04:03:15;;;;;;;3.72;0.60;;;29.20;96.80;;;;;;5014831;28;20128;-86
2021/01/13 04:06:13;;;;;;;3.30;0.40;;;29.30;96.90;;;;;;4993345;28;20447;-86
2021/01/13 04:08:41;;;;;;;3.65;0.63;;;29.20;96.90;;;;;;4995932;28;20040;-82
2021/01/13 04:11:12;;;;;;;4.05;0.50;;;29.10;96.60;;;;;;5013035;28;20037;-82
2021/01/13 04:13:52;;;;;;;2.92;0.40;;;28.90;96.90;;;;;;5022504;28;20025;-81
2021/01/13 04:16:22;;;;;;;4.15;0.68;;;29.00;97.00;;;;;;5033258;28;20025;-84
2021/01/13 04:18:51;;;;;;;4.68;0.70;;;29.00;97.60;;;;;;5031216;28;20020;-83
2021/01/13 04:21:21;;;;;;;4.38;0.40;;;28.70;97.40;;;;;;5033116;28;20049;-82
2021/01/13 04:23:49;;;;;;;1.60;0.40;;;28.80;97.60;;;;;;5014073;28;20045;-81
2021/01/13 04:26:17;;;;;;;1.58;0.25;;;28.70;98.10;;;;;;5026402;28;20032;-82
2021/01/13 04:28:44;;;;;;;5.53;0.77;;;28.70;97.60;;;;;;5030784;28;20126;-80
2021/01/13 04:31:12;;;;;;;4.60;0.32;;;28.20;98.10;;;;;;5032924;28;20021;-81
2021/01/13 04:33:39;;;;;;;3.20;0.22;;;28.30;98.40;;;;;;5029793;28;20049;-81
2021/01/13 04:36:07;;;;;;;2.83;0.50;;;28.30;98.60;;;;;;5032696;28;20504;-82
2021/01/13 04:38:35;;;;;;;2.45;0.40;;;28.10;99.00;;;;;;5053711;22;20503;-81
2021/01/13 04:41:18;;;;;;;2.60;0.52;;;27.90;98.80;;;;;;5074679;22;20057;-80
2021/01/13 04:44:02;;;;;;;4.07;0.50;;;27.80;99.30;;;;;;5031155;28;20552;-81
2021/01/13 04:46:36;;;;;;;1.58;0.20;;;27.90;99.90;;;;;;5066723;22;20170;-83
2021/01/13 04:49:06;;;;;;;4.50;0.70;;;28.20;99.30;;;;;;5067354;28;20041;-84
2021/01/13 04:51:37;;;;;;;6.38;0.70;;;28.00;99.00;;;;;;5059314;28;20013;-79
2021/01/13 04:54:10;;;;;;;1.63;0.50;;;27.90;99.00;;;;;;5055440;28;20044;-84
2021/01/13 04:56:58;;;;;;;3.13;0.43;;;27.80;99.60;;;;;;5057576;22;20429;-80
2021/01/13 04:59:31;;;;;;;4.10;0.40;;;27.80;99.70;;;;;;5017639;28;20036;-81
2021/01/13 05:02:12;;;;;;;3.05;1.00;;;27.70;99.50;;;;;;5014873;28;20018;-81
2021/01/13 05:05:00;;;;;;;3.70;0.50;;;27.60;99.80;;;;;;5031194;28;20506;-81
2021/01/13 05:07:35;;;;;;;3.97;0.65;;;27.70;99.90;;;;;;5048917;28;20024;-81
2021/01/13 05:10:15;;;;;;;5.03;0.60;;;27.70;99.90;;;;;;5012101;28;20050;-75
2021/01/13 05:12:56;;;;;;;4.78;0.50;;;27.60;99.90;;;;;;5038580;22;20383;-80
2021/01/13 05:15:26;;;;;;;4.55;0.82;;;27.40;99.90;;;;;;5049150;28;20028;-82
2021/01/13 05:18:05;;;;;;;4.63;0.80;;;27.40;99.90;;;;;;5041969;28;20071;-82
2021/01/13 05:20:41;;;;;;;2.88;0.47;;;27.40;99.90;;;;;;5051297;28;20020;-81
2021/01/13 05:23:10;;;;;;;3.95;0.40;;;27.50;99.90;;;;;;5032208;28;20025;-84
2021/01/13 05:25:45;;;;;;;2.72;0.35;;;27.50;99.90;;;;;;5044583;28;20453;-81
2021/01/13 05:28:26;;;;;;;4.75;1.05;;;27.60;99.90;;;;;;5046713;28;20367;-80
2021/01/13 05:30:58;;;;;;;14.07;0.50;;;27.60;99.90;;;;;;5051918;28;20021;-79
2021/01/13 05:33:27;;;;;;;4.05;0.60;;;27.50;99.90;;;;;;5041879;28;20494;-80
2021/01/13 05:35:56;;;;;;;3.47;0.80;;;27.60;99.90;;;;;;5033586;28;20108;-79
2021/01/13 05:39:02;;;;;;;5.18;1.13;;;27.50;99.90;;;;;;5020792;28;20053;-80
2021/01/13 05:41:30;;;;;;;6.85;0.55;;;27.40;99.90;;;;;;5028038;28;20064;-79
2021/01/13 05:43:58;;;;;;;4.50;0.43;;;27.30;99.90;;;;;;5045418;28;20017;-81
2021/01/13 05:46:34;;;;;;;5.28;0.93;;;27.20;99.90;;;;;;5053992;22;20053;-81
2021/01/13 05:49:03;;;;;;;4.32;0.52;;;27.30;99.90;;;;;;5042613;28;20041;-79
2021/01/13 05:51:31;;;;;;;4.75;0.77;;;27.20;99.90;;;;;;5031669;28;20521;-80
2021/01/13 05:53:58;;;;;;;3.53;0.40;;;27.20;99.90;;;;;;5029151;28;20040;-81
2021/01/13 05:56:26;;;;;;;2.83;0.65;;;27.20;99.90;;;;;;5025863;28;20121;-80
2021/01/13 05:59:07;;;;;;;8.63;1.42;;;27.10;99.90;;;;;;5018406;28;20127;-80
2021/01/13 06:01:59;;;;;;;4.13;0.73;;;27.20;99.90;;;;;;5012079;28;20054;-80
2021/01/13 06:04:27;;;;;;;3.30;0.50;;;27.10;99.90;;;;;;5026979;28;20068;-78
2021/01/13 06:06:57;;;;;;;4.72;0.98;;;27.10;99.90;;;;;;5031884;28;20045;-78
2021/01/13 06:09:26;;;;;;;6.60;0.98;;;27.10;99.90;;;;;;5014288;28;20065;-79
2021/01/13 06:11:55;;;;;;;4.35;0.80;;;27.20;99.90;;;;;;5011813;28;20022;-79
2021/01/13 06:14:27;;;;;;;8.35;0.50;;;27.30;99.90;;;;;;5015180;28;20068;-80
2021/01/13 06:16:55;;;;;;;3.90;0.57;;;27.20;99.90;;;;;;5030917;28;20086;-78
2021/01/13 06:19:23;;;;;;;10.25;1.40;;;27.30;99.90;;;;;;5040248;28;20079;-77
2021/01/13 06:22:10;;;;;;;6.65;1.45;;;27.10;99.90;;;;;;5037404;28;20029;-79
2021/01/13 06:24:38;;;;;;;5.60;0.88;;;26.80;99.90;;;;;;5042620;28;20393;-79
2021/01/13 06:27:20;;;;;;;5.28;0.70;;;26.80;99.90;;;;;;5029941;28;20079;-84
2021/01/13 06:30:00;;;;;;;7.53;0.93;;;26.90;99.90;;;;;;5029974;28;20087;-78
2021/01/13 06:32:44;;;;;;;5.82;0.43;;;26.80;99.90;;;;;;5029886;28;20399;-78
2021/01/13 06:35:27;;;;;;;7.50;0.77;;;26.50;99.90;;;;;;5034738;28;20031;-76
2021/01/13 06:37:58;;;;;;;9.48;1.60;;;26.50;99.90;;;;;;5027170;28;20117;-78
2021/01/13 06:40:25;;;;;;;5.00;0.70;;;26.70;99.90;;;;;;5028545;28;20025;-77
2021/01/13 06:42:53;;;;;;;6.25;0.75;;;26.60;99.90;;;;;;5030735;28;20041;-78
2021/01/13 06:45:33;;;;;;;6.55;0.60;;;26.50;99.90;;;;;;5034715;28;20037;-80
2021/01/13 06:48:00;;;;;;;6.38;0.98;;;26.40;99.90;;;;;;5085336;22;20044;-78
2021/01/13 06:50:41;;;;;;;5.80;0.80;;;26.20;99.90;;;;;;5064085;22;20152;-79
2021/01/13 06:53:10;;;;;;;3.80;0.50;;;26.20;99.90;;;;;;5078764;28;20052;-78
2021/01/13 06:55:39;;;;;;;5.22;0.40;;;26.20;99.90;;;;;;5068999;22;20497;-81
2021/01/13 06:58:17;;;;;;;3.88;0.55;;;26.00;99.90;;;;;;5052630;28;20017;-79
2021/01/13 07:00:46;;;;;;;5.03;0.88;;;25.90;99.90;;;;;;5028015;28;20022;-79
2021/01/13 07:03:30;;;;;;;3.85;0.40;;;25.80;99.90;;;;;;5047263;22;20048;-77
2021/01/13 07:06:08;;;;;;;3.88;0.43;;;25.70;99.90;;;;;;5034592;28;20040;-76
2021/01/13 07:08:36;;;;;;;4.80;0.57;;;25.90;99.90;;;;;;5044629;28;20110;-76
2021/01/13 07:11:06;;;;;;;5.00;0.60;;;25.90;99.90;;;;;;5051113;28;20020;-74
2021/01/13 07:13:41;;;;;;;4.25;1.15;;;25.80;99.90;;;;;;5052166;28;20432;-75
2021/01/13 07:16:09;;;;;;;8.65;0.95;;;25.80;99.90;;;;;;5052852;28;20086;-74
2021/01/13 07:18:37;;;;;;;28.70;23.30;;;25.70;99.90;;;;;;5060741;28;20029;-80
2021/01/13 07:21:13;;;;;;;23.95;17.02;;;25.70;99.90;;;;;;5036127;22;20064;-81
2021/01/13 07:23:47;;;;;;;5.55;1.25;;;25.70;99.90;;;;;;5010895;28;20022;-77
2021/01/13 07:26:15;;;;;;;4.38;0.70;;;25.60;99.90;;;;;;4994647;28;20026;-76
2021/01/13 07:28:42;;;;;;;5.10;0.60;;;25.50;99.90;;;;;;5005344;28;20032;-78
2021/01/13 07:31:10;;;;;;;5.18;0.57;;;25.60;99.90;;;;;;5026645;28;20076;-79
2021/01/13 07:33:42;;;;;;;9.65;1.45;;;25.70;99.90;;;;;;5024890;28;20528;-77
2021/01/13 07:36:18;;;;;;;6.70;1.33;;;25.60;99.90;;;;;;5013951;28;20057;-78
2021/01/13 07:38:56;;;;;;;8.55;1.20;;;25.60;99.90;;;;;;5031559;28;20553;-79
2021/01/13 07:41:41;;;;;;;4.75;0.88;;;25.50;99.90;;;;;;5033600;28;20025;-78
2021/01/13 07:44:35;;;;;;;5.45;0.65;;;25.40;99.90;;;;;;5019441;28;20034;-78
2021/01/13 07:47:03;;;;;;;6.05;0.90;;;25.40;99.90;;;;;;5013579;28;20049;-78
2021/01/13 07:49:47;;;;;;;5.38;0.80;;;25.40;99.90;;;;;;5026098;28;20042;-80
2021/01/13 07:52:18;;;;;;;5.13;0.77;;;25.40;99.90;;;;;;5030519;28;20514;-79
2021/01/13 07:54:49;;;;;;;5.40;1.02;;;25.30;99.90;;;;;;5064985;23;20150;-80
2021/01/13 07:57:24;;;;;;;6.55;0.70;;;25.40;99.90;;;;;;5042897;28;20020;-79
2021/01/13 08:00:08;;;;;;;6.82;1.25;;;25.20;99.90;;;;;;5052122;28;20501;-78
2021/01/13 08:03:07;;;;;;;5.60;1.08;;;25.10;99.90;;;;;;5051661;28;20056;-79
2021/01/13 08:06:05;;;;;;;7.68;1.00;;;25.00;99.90;;;;;;5052919;28;20033;-79
2021/01/13 08:09:15;;;;;;;7.35;1.20;;;25.00;99.90;;;;;;5050878;28;20025;-77
2021/01/13 08:12:04;;;;;;;9.95;0.70;;;24.90;99.90;;;;;;4992589;28;20064;-78
2021/01/13 08:15:02;;;;;;;7.78;0.90;;;24.90;99.90;;;;;;5026125;28;20549;-77
2021/01/13 08:17:51;;;;;;;3.88;1.27;;;24.80;99.90;;;;;;5047516;28;20033;-77
2021/01/13 08:20:42;;;;;;;3.00;0.47;;;24.80;99.90;;;;;;5033167;28;20025;-76
2021/01/13 08:23:18;;;;;;;5.38;0.55;;;24.70;99.90;;;;;;5041638;28;20035;-77
2021/01/13 08:25:58;;;;;;;3.83;0.80;;;24.70;99.90;;;;;;5050410;28;20028;-77
2021/01/13 08:28:26;;;;;;;5.22;0.85;;;24.60;99.90;;;;;;5048880;28;20116;-76
2021/01/13 08:30:53;;;;;;;5.35;0.73;;;24.50;99.90;;;;;;5051715;28;20056;-76
2021/01/13 08:33:23;;;;;;;6.57;0.88;;;24.60;99.90;;;;;;5050765;28;20049;-79
2021/01/13 08:36:01;;;;;;;7.18;0.82;;;24.40;99.90;;;;;;5052490;28;20477;-78
2021/01/13 08:38:29;;;;;;;10.85;1.20;;;24.40;99.90;;;;;;5032519;28;20040;-76
2021/01/13 08:40:56;;;;;;;6.88;0.75;;;24.30;99.90;;;;;;5052576;28;20125;-77
2021/01/13 08:43:25;;;;;;;8.30;1.60;;;24.30;99.90;;;;;;5050500;28;20063;-77
2021/01/13 08:45:54;;;;;;;7.53;1.17;;;24.30;99.90;;;;;;5039970;28;20390;-77
2021/01/13 08:48:22;;;;;;;8.07;1.17;;;24.20;99.90;;;;;;5049343;28;20041;-77
2021/01/13 08:51:05;;;;;;;6.22;0.68;;;24.30;99.90;;;;;;5052813;28;20047;-76
2021/01/13 08:53:33;;;;;;;9.27;1.10;;;24.10;99.90;;;;;;5043253;28;20374;-76
2021/01/13 08:56:02;;;;;;;13.10;1.02;;;24.10;99.90;;;;;;5073779;22;20068;-77
2021/01/13 08:58:34;;;;;;;9.40;1.27;;;24.10;99.90;;;;;;5060193;22;20044;-76
2021/01/13 09:01:09;;;;;;;8.90;0.93;;;24.00;99.90;;;;;;5068967;28;20070;-76
2021/01/13 09:03:43;;;;;;;6.10;1.38;;;24.00;99.90;;;;;;5082036;22;20045;-79
2021/01/13 09:06:27;;;;;;;7.38;1.92;;;24.00;99.90;;;;;;5044108;28;20513;-76
2021/01/13 09:08:57;;;;;;;;;;;24.00;99.90;;;;;;5060405;28;20066;-76
2021/01/13 09:11:34;;;;;;;8.98;0.63;;;24.00;99.90;;;;;;5083292;22;20377;-76
2021/01/13 09:14:23;;;;;;;6.60;1.10;;;24.00;99.90;;;;;;5069604;28;20040;-76
2021/01/13 09:16:57;;;;;;;6.75;1.08;;;23.90;99.90;;;;;;5070811;28;20025;-77
2021/01/13 09:19:40;;;;;;;6.57;0.55;;;23.80;99.90;;;;;;5053104;28;20047;-77
2021/01/13 09:22:13;;;;;;;8.95;1.10;;;23.90;99.90;;;;;;5070429;28;20060;-77
2021/01/13 09:24:42;;;;;;;7.80;1.17;;;23.90;99.90;;;;;;5069205;28;20035;-77
2021/01/13 09:27:12;;;;;;;6.10;0.50;;;23.80;99.90;;;;;;5077690;22;20027;-77
2021/01/13 09:29:53;;;;;;;7.20;1.10;;;23.80;99.90;;;;;;5048284;28;20045;-77
2021/01/13 09:32:22;;;;;;;6.25;0.70;;;23.70;99.90;;;;;;5033569;28;20024;-77
2021/01/13 09:34:53;;;;;;;11.55;1.90;;;23.80;99.90;;;;;;5051885;28;20021;-77
2021/01/13 09:37:22;;;;;;;11.07;1.15;;;23.70;99.90;;;;;;5033799;28;20022;-77
2021/01/13 09:40:00;;;;;;;5.68;0.80;;;23.70;99.90;;;;;;5031671;28;20024;-78
2021/01/13 09:42:44;;;;;;;8.25;1.33;;;23.70;99.90;;;;;;5046624;28;20037;-78
2021/01/13 09:45:12;;;;;;;7.65;0.85;;;23.70;99.90;;;;;;5032899;28;20036;-77
2021/01/13 09:47:40;;;;;;;9.30;1.55;;;23.70;99.90;;;;;;5050103;28;20102;-77
2021/01/13 09:50:13;;;;;;;8.88;1.55;;;23.70;99.90;;;;;;5048124;28;20033;-78
2021/01/13 09:52:47;;;;;;;9.20;1.23;;;23.70;99.90;;;;;;5021142;28;20037;-77
2021/01/13 09:55:14;;;;;;;11.13;1.30;;;23.60;99.90;;;;;;5031175;28;20029;-77
2021/01/13 09:57:42;;;;;;;8.82;1.40;;;23.60;99.90;;;;;;5048810;28;22239;-76
2021/01/13 10:00:14;;;;;;;10.43;1.33;;;23.60;99.90;;;;;;5064498;22;20064;-79
2021/01/13 10:02:43;;;;;;;10.77;1.83;;;23.50;99.90;;;;;;5071185;28;20146;-76
2021/01/13 10:05:11;;;;;;;8.15;0.98;;;23.50;99.90;;;;;;5069176;28;20362;-76
2021/01/13 10:07:39;;;;;;;7.70;1.10;;;23.50;99.90;;;;;;5067241;28;20028;-76
2021/01/13 10:10:08;;;;;;;8.40;1.27;;;23.40;99.90;;;;;;5053050;28;20036;-76
2021/01/13 10:12:41;;;;;;;8.35;1.52;;;23.40;99.90;;;;;;5071869;28;20021;-76
2021/01/13 10:15:12;;;;;;;9.48;1.10;;;23.40;99.90;;;;;;5072281;28;20070;-75
2021/01/13 10:17:40;;;;;;;10.02;1.33;;;23.40;99.90;;;;;;5042605;28;20025;-76
2021/01/13 10:20:22;;;;;;;7.85;1.05;;;23.40;99.90;;;;;;5074035;28;20016;-75
2021/01/13 10:22:50;;;;;;;11.48;1.33;;;23.40;99.90;;;;;;5073615;28;20089;-76
2021/01/13 10:25:33;;;;;;;11.20;1.40;;;23.40;99.90;;;;;;5073648;28;20516;-76
2021/01/13 10:28:01;;;;;;;17.02;1.50;;;23.40;99.90;;;;;;5054323;28;20090;-75
2021/01/13 10:30:29;;;;;;;8.80;1.10;;;23.40;99.90;;;;;;5046814;28;20082;-76
2021/01/13 10:32:58;;;;;;;7.97;1.05;;;23.40;99.90;;;;;;5054422;28;20039;-75
2021/01/13 10:35:38;;;;;;;11.43;1.08;;;23.40;99.90;;;;;;5068118;28;20032;-76
2021/01/13 10:38:05;;;;;;;7.78;0.93;;;23.40;99.90;;;;;;5073538;28;20082;-75
2021/01/13 10:40:33;;;;;;;11.27;0.88;;;23.40;99.90;;;;;;5053397;28;20052;-75
2021/01/13 10:43:04;;;;;;;9.85;1.80;;;23.40;99.90;;;;;;5071604;28;20035;-76
2021/01/13 10:45:31;;;;;;;7.53;1.35;;;23.30;99.90;;;;;;5073571;28;20066;-76
2021/01/13 10:48:02;;;;;;;7.40;1.13;;;23.40;99.90;;;;;;5073517;28;20036;-75
2021/01/13 10:50:37;;;;;;;8.93;1.52;;;23.40;99.90;;;;;;5073597;28;20016;-76
2021/01/13 10:53:04;;;;;;;11.45;1.10;;;23.40;99.90;;;;;;5069626;28;20021;-76
2021/01/13 10:55:32;;;;;;;10.02;1.15;;;23.30;99.90;;;;;;5073893;28;20052;-76
2021/01/13 10:58:02;;;;;;;6.85;0.95;;;23.30;99.90;;;;;;5072707;28;20410;-75
2021/01/13 11:00:30;;;;;;;6.93;0.90;;;23.20;99.90;;;;;;5072935;28;20119;-75
2021/01/13 11:02:59;;;;;;;11.25;1.35;;;23.20;99.90;;;;;;5078829;22;20049;-76
2021/01/13 11:05:27;;;;;;;9.75;1.52;;;23.20;99.90;;;;;;5065111;22;20058;-76
2021/01/13 11:07:58;;;;;;;11.15;1.88;;;23.20;99.90;;;;;;5008842;28;20029;-75
2021/01/13 11:10:26;;;;;;;8.35;1.33;;;23.30;99.90;;;;;;5058836;22;20064;-75
2021/01/13 11:13:01;;;;;;;10.10;2.33;;;23.30;99.90;;;;;;5023712;28;20537;-75
2021/01/13 11:15:29;;;;;;;15.15;1.92;;;23.20;99.90;;;;;;5035346;28;20571;-75
2021/01/13 11:17:58;;;;;;;10.02;1.77;;;23.30;99.90;;;;;;5066777;22;20041;-76
2021/01/13 11:20:30;;;;;;;8.32;1.45;;;23.20;99.90;;;;;;5054684;28;20541;-76
2021/01/13 11:23:01;;;;;;;8.85;1.23;;;23.20;99.90;;;;;;5069181;28;20492;-75
2021/01/13 11:25:36;;;;;;;9.05;1.40;;;23.20;99.90;;;;;;5063638;28;20024;-75
2021/01/13 11:28:04;;;;;;;9.38;1.10;;;23.10;99.90;;;;;;5073549;28;20032;-75
2021/01/13 11:30:34;;;;;;;9.52;1.08;;;23.20;99.90;;;;;;5072107;28;20035;-75
2021/01/13 11:33:03;;;;;;;14.27;2.00;;;23.20;99.90;;;;;;5072809;28;20060;-75
2021/01/13 11:35:31;;;;;;;7.95;1.38;;;23.20;99.90;;;;;;5060753;22;20514;-76
2021/01/13 11:38:19;;;;;;;9.05;0.93;;;23.20;99.90;;;;;;5030187;28;20038;-75
2021/01/13 11:41:23;;;;;;;12.40;1.77;;;23.10;99.90;;;;;;5008060;28;20084;-76
2021/01/13 11:43:50;;;;;;;8.27;1.35;;;23.10;99.90;;;;;;4997755;28;20025;-76
2021/01/13 11:46:28;;;;;;;9.63;1.80;;;23.10;99.90;;;;;;5007739;28;20032;-75
2021/01/13 11:49:20;;;;;;;8.07;1.20;;;23.10;99.90;;;;;;5005990;28;20068;-76
2021/01/13 11:51:51;;;;;;;12.40;1.15;;;23.10;99.90;;;;;;5011109;28;20022;-75
2021/01/13 11:54:30;;;;;;;9.65;1.35;;;23.10;99.90;;;;;;5012971;28;20021;-76
2021/01/13 11:57:25;;;;;;;9.73;1.38;;;23.10;99.90;;;;;;5006507;28;20022;-76
2021/01/13 12:00:12;;;;;;;15.98;1.60;;;23.10;99.90;;;;;;5005543;28;20121;-75
2021/01/13 12:02:39;;;;;;;9.07;1.27;;;23.00;99.90;;;;;;4991660;28;20148;-76
2021/01/13 12:05:08;;;;;;;8.30;1.45;;;23.00;99.90;;;;;;5004588;28;20093;-76
2021/01/13 12:07:35;;;;;;;14.75;1.63;;;23.00;99.90;;;;;;5034290;22;20049;-75
2021/01/13 12:10:13;;;;;;;10.77;1.30;;;23.00;99.90;;;;;;5051499;28;20045;-76
2021/01/13 12:12:41;;;;;;;8.43;1.15;;;23.00;99.90;;;;;;5052141;28;20025;-75
2021/01/13 12:15:13;;;;;;;10.10;1.55;;;23.00;99.90;;;;;;5051510;28;20024;-76
2021/01/13 12:17:51;;;;;;;8.45;1.35;;;23.00;99.90;;;;;;5051580;28;20103;-75
2021/01/13 12:20:35;;;;;;;8.50;0.98;;;23.00;99.90;;;;;;5037610;28;20112;-76
2021/01/13 12:23:22;;;;;;;11.83;1.53;;;23.00;99.90;;;;;;5014539;28;20034;-76
2021/01/13 12:25:50;;;;;;;11.07;1.52;;;23.00;99.90;;;;;;5050105;28;20032;-76
2021/01/13 12:28:17;;;;;;;8.55;0.70;;;23.00;99.90;;;;;;5044567;28;20056;-76
2021/01/13 12:30:56;;;;;;;11.93;1.27;;;23.00;99.90;;;;;;5051130;28;20524;-76
2021/01/13 12:33:23;;;;;;;10.25;1.77;;;23.00;99.90;;;;;;5050751;28;20532;-77
2021/01/13 12:35:51;;;;;;;4.93;1.23;;;23.00;99.90;;;;;;5051722;28;20025;-76
2021/01/13 12:38:35;;;;;;;8.57;1.42;;;23.00;99.90;;;;;;5050118;28;20028;-76
2021/01/13 12:41:03;;;;;;;;;;;23.00;99.90;;;;;;5050824;28;20086;-75
2021/01/13 12:43:36;;;;;;;8.40;1.63;;;23.10;99.90;;;;;;5038780;28;19954;-79
2021/01/13 12:46:03;;;;;;;8.52;1.45;;;23.00;99.90;;;;;;5050951;28;20095;-76
2021/01/13 12:48:31;;;;;;;11.00;2.10;;;23.00;99.90;;;;;;5049552;28;20069;-75
2021/01/13 12:50:58;;;;;;;9.70;1.42;;;22.90;99.90;;;;;;5021018;28;20033;-76
2021/01/13 12:53:25;;;;;;;8.93;1.13;;;23.00;99.90;;;;;;5050433;28;20029;-76
2021/01/13 12:55:52;;;;;;;8.57;0.93;;;23.00;99.90;;;;;;5051508;28;20098;-77
2021/01/13 12:58:20;;;;;;;9.70;1.25;;;22.90;99.90;;;;;;5050645;28;20056;-77
2021/01/13 13:00:47;;;;;;;9.52;1.20;;;22.90;99.90;;;;;;5050032;28;20537;-78
2021/01/13 13:03:14;;;;;;;11.52;1.02;;;22.90;99.90;;;;;;5048681;28;20131;-77
2021/01/13 13:05:41;;;;;;;9.45;1.48;;;22.90;99.90;;;;;;5031802;28;20037;-76
2021/01/13 13:08:08;;;;;;;8.57;1.00;;;22.80;99.90;;;;;;5033139;22;20044;-77
2021/01/13 13:10:36;;;;;;;7.75;0.98;;;22.90;99.90;;;;;;5055063;23;20118;-77
2021/01/13 13:13:03;;;;;;;9.05;1.02;;;22.90;99.90;;;;;;5057104;22;20107;-77
2021/01/13 13:15:30;;;;;;;9.85;1.40;;;22.90;99.90;;;;;;5057921;22;20027;-76
2021/01/13 13:17:57;;;;;;;8.18;1.63;;;22.80;99.90;;;;;;5033583;28;20467;-77
2021/01/13 13:20:25;;;;;;;11.38;1.00;;;22.80;99.90;;;;;;5037878;28;20074;-76